sensor_id;sensor_type;location;lat;lon;timestamp;P1;durP1;ratioP1;P2;durP2;ratioP2
13085;SDS011;6609;49.882;8.664;2022-09-03T00:01:05;2.17;;;1.10;;
13085;SDS011;6609;49.882;8.664;2022-09-03T00:03:38;3.10;;;1.10;;
13085;SDS011;6609;49.882;8.664;2022-09-03T00:06:10;3.73;;;1.30;;
13085;SDS011;6609;49.882;8.664;2022-09-03T00:08:39;11.63;;;1.00;;
13085;SDS011;6609;49.882;8.664;2022-09-03T00:11:13;1.40;;;1.00;;
13085;SDS011;6609;49.882;8.664;2022-09-03T00:13:43;2.37;;;1.57;;
13085;SDS011;6609;49.882;8.664;2022-09-03T00:16:15;2.10;;;1.27;;
13085;SDS011;6609;49.882;8.664;2022-09-03T00:18:44;1.80;;;1.20;;
13085;SDS011;6609;49.882;8.664;2022-09-03T00:21:13;2.73;;;1.20;;
13085;SDS011;6609;49.882;8.664;2022-09-03T00:23:41;3.97;;;1.40;;
13085;SDS011;6609;49.882;8.664;2022-09-03T00:26:16;2.10;;;1.13;;
13085;SDS011;6609;49.882;8.664;2022-09-03T00:28:48;1.20;;;0.90;;
13085;SDS011;6609;49.882;8.664;2022-09-03T00:31:21;9.10;;;1.40;;
13085;SDS011;6609;49.882;8.664;2022-09-03T00:33:51;1.43;;;0.80;;
13085;SDS011;6609;49.882;8.664;2022-09-03T00:36:21;4.37;;;1.10;;
13085;SDS011;6609;49.882;8.664;2022-09-03T00:38:50;2.60;;;0.90;;
13085;SDS011;6609;49.882;8.664;2022-09-03T00:41:22;1.03;;;0.80;;
13085;SDS011;6609;49.882;8.664;2022-09-03T00:46:38;1.77;;;1.13;;
13085;SDS011;6609;49.882;8.664;2022-09-03T00:49:16;2.00;;;0.97;;
13085;SDS011;6609;49.882;8.664;2022-09-03T00:51:49;1.10;;;0.80;;
13085;SDS011;6609;49.882;8.664;2022-09-03T00:54:18;2.10;;;1.23;;
13085;SDS011;6609;49.882;8.664;2022-09-03T00:56:54;1.37;;;0.90;;
13085;SDS011;6609;49.882;8.664;2022-09-03T00:59:28;1.87;;;1.27;;
13085;SDS011;6609;49.882;8.664;2022-09-03T01:02:00;5.87;;;1.50;;
13085;SDS011;6609;49.882;8.664;2022-09-03T01:04:39;3.20;;;1.50;;
13085;SDS011;6609;49.882;8.664;2022-09-03T01:07:08;3.50;;;1.40;;
13085;SDS011;6609;49.882;8.664;2022-09-03T01:09:41;4.40;;;1.33;;
13085;SDS011;6609;49.882;8.664;2022-09-03T01:12:15;1.47;;;1.10;;
13085;SDS011;6609;49.882;8.664;2022-09-03T01:14:52;1.53;;;1.20;;
13085;SDS011;6609;49.882;8.664;2022-09-03T01:17:27;1.67;;;0.97;;
13085;SDS011;6609;49.882;8.664;2022-09-03T01:20:05;0.90;;;0.80;;
13085;SDS011;6609;49.882;8.664;2022-09-03T01:25:32;3.67;;;1.30;;
13085;SDS011;6609;49.882;8.664;2022-09-03T01:28:07;1.70;;;1.20;;
13085;SDS011;6609;49.882;8.664;2022-09-03T01:30:44;2.57;;;1.40;;
13085;SDS011;6609;49.882;8.664;2022-09-03T01:33:16;4.20;;;1.40;;
13085;SDS011;6609;49.882;8.664;2022-09-03T01:35:51;1.70;;;1.10;;
13085;SDS011;6609;49.882;8.664;2022-09-03T01:38:25;4.00;;;1.63;;
13085;SDS011;6609;49.882;8.664;2022-09-03T01:41:00;3.57;;;1.10;;
13085;SDS011;6609;49.882;8.664;2022-09-03T01:43:57;1.80;;;1.10;;
13085;SDS011;6609;49.882;8.664;2022-09-03T01:46:35;3.20;;;1.60;;
13085;SDS011;6609;49.882;8.664;2022-09-03T01:49:04;4.43;;;1.20;;
13085;SDS011;6609;49.882;8.664;2022-09-03T01:51:37;2.20;;;1.27;;
13085;SDS011;6609;49.882;8.664;2022-09-03T01:54:09;2.27;;;1.20;;
13085;SDS011;6609;49.882;8.664;2022-09-03T01:57:07;3.43;;;1.23;;
13085;SDS011;6609;49.882;8.664;2022-09-03T01:59:42;1.83;;;1.33;;
13085;SDS011;6609;49.882;8.664;2022-09-03T02:02:15;1.40;;;0.90;;
13085;SDS011;6609;49.882;8.664;2022-09-03T02:04:53;1.30;;;1.00;;
13085;SDS011;6609;49.882;8.664;2022-09-03T02:07:21;2.10;;;1.20;;
13085;SDS011;6609;49.882;8.664;2022-09-03T02:09:49;2.80;;;1.40;;
13085;SDS011;6609;49.882;8.664;2022-09-03T02:12:16;1.67;;;1.10;;
13085;SDS011;6609;49.882;8.664;2022-09-03T02:14:47;4.03;;;1.17;;
13085;SDS011;6609;49.882;8.664;2022-09-03T02:17:14;1.60;;;0.87;;
13085;SDS011;6609;49.882;8.664;2022-09-03T02:19:41;1.70;;;1.10;;
13085;SDS011;6609;49.882;8.664;2022-09-03T02:22:08;1.47;;;1.00;;
13085;SDS011;6609;49.882;8.664;2022-09-03T02:24:35;2.17;;;1.37;;
13085;SDS011;6609;49.882;8.664;2022-09-03T02:27:02;2.83;;;1.60;;
13085;SDS011;6609;49.882;8.664;2022-09-03T02:29:28;3.23;;;1.33;;
13085;SDS011;6609;49.882;8.664;2022-09-03T02:31:57;1.63;;;1.10;;
13085;SDS011;6609;49.882;8.664;2022-09-03T02:34:24;1.73;;;1.17;;
13085;SDS011;6609;49.882;8.664;2022-09-03T02:36:51;1.50;;;1.10;;
13085;SDS011;6609;49.882;8.664;2022-09-03T02:39:18;1.37;;;1.03;;
13085;SDS011;6609;49.882;8.664;2022-09-03T02:41:50;3.40;;;1.30;;
13085;SDS011;6609;49.882;8.664;2022-09-03T02:44:19;1.77;;;1.27;;
13085;SDS011;6609;49.882;8.664;2022-09-03T02:46:52;2.97;;;0.77;;
13085;SDS011;6609;49.882;8.664;2022-09-03T02:49:22;1.80;;;1.30;;
13085;SDS011;6609;49.882;8.664;2022-09-03T02:51:49;1.23;;;1.00;;
13085;SDS011;6609;49.882;8.664;2022-09-03T02:54:16;1.80;;;1.13;;
13085;SDS011;6609;49.882;8.664;2022-09-03T02:56:42;3.97;;;1.37;;
13085;SDS011;6609;49.882;8.664;2022-09-03T02:59:12;2.30;;;1.30;;
13085;SDS011;6609;49.882;8.664;2022-09-03T03:01:39;3.97;;;1.27;;
13085;SDS011;6609;49.882;8.664;2022-09-03T03:04:06;2.10;;;1.30;;
13085;SDS011;6609;49.882;8.664;2022-09-03T03:06:34;3.33;;;1.27;;
13085;SDS011;6609;49.882;8.664;2022-09-03T03:09:01;1.63;;;1.13;;
13085;SDS011;6609;49.882;8.664;2022-09-03T03:11:29;1.07;;;0.87;;
13085;SDS011;6609;49.882;8.664;2022-09-03T03:13:57;2.17;;;1.07;;
13085;SDS011;6609;49.882;8.664;2022-09-03T03:16:23;4.07;;;1.07;;
13085;SDS011;6609;49.882;8.664;2022-09-03T03:18:50;2.30;;;1.03;;
13085;SDS011;6609;49.882;8.664;2022-09-03T03:21:17;1.40;;;1.00;;
13085;SDS011;6609;49.882;8.664;2022-09-03T03:23:46;2.53;;;1.30;;
13085;SDS011;6609;49.882;8.664;2022-09-03T03:26:13;2.20;;;1.30;;
13085;SDS011;6609;49.882;8.664;2022-09-03T03:28:42;2.23;;;0.93;;
13085;SDS011;6609;49.882;8.664;2022-09-03T03:31:11;1.90;;;1.13;;
13085;SDS011;6609;49.882;8.664;2022-09-03T03:33:39;3.90;;;1.50;;
13085;SDS011;6609;49.882;8.664;2022-09-03T03:36:07;1.10;;;0.90;;
13085;SDS011;6609;49.882;8.664;2022-09-03T03:38:35;1.83;;;1.20;;
13085;SDS011;6609;49.882;8.664;2022-09-03T03:41:07;1.33;;;1.00;;
13085;SDS011;6609;49.882;8.664;2022-09-03T03:43:34;2.57;;;1.77;;
13085;SDS011;6609;49.882;8.664;2022-09-03T03:46:01;3.30;;;1.23;;
13085;SDS011;6609;49.882;8.664;2022-09-03T03:48:29;3.40;;;1.27;;
13085;SDS011;6609;49.882;8.664;2022-09-03T03:50:58;2.57;;;1.30;;
13085;SDS011;6609;49.882;8.664;2022-09-03T03:53:25;1.57;;;1.07;;
13085;SDS011;6609;49.882;8.664;2022-09-03T03:55:53;2.03;;;1.20;;
13085;SDS011;6609;49.882;8.664;2022-09-03T03:58:21;2.03;;;1.20;;
13085;SDS011;6609;49.882;8.664;2022-09-03T04:00:49;3.47;;;1.37;;
13085;SDS011;6609;49.882;8.664;2022-09-03T04:03:16;1.43;;;1.07;;
13085;SDS011;6609;49.882;8.664;2022-09-03T04:05:43;1.73;;;1.20;;
13085;SDS011;6609;49.882;8.664;2022-09-03T04:08:10;2.40;;;1.37;;
13085;SDS011;6609;49.882;8.664;2022-09-03T04:10:37;2.63;;;0.90;;
13085;SDS011;6609;49.882;8.664;2022-09-03T04:13:04;2.80;;;1.43;;
13085;SDS011;6609;49.882;8.664;2022-09-03T04:15:32;2.50;;;1.27;;
13085;SDS011;6609;49.882;8.664;2022-09-03T04:17:59;1.97;;;1.10;;
13085;SDS011;6609;49.882;8.664;2022-09-03T04:20:26;2.93;;;1.40;;
13085;SDS011;6609;49.882;8.664;2022-09-03T04:22:53;1.80;;;1.23;;
13085;SDS011;6609;49.882;8.664;2022-09-03T04:25:19;2.57;;;1.13;;
13085;SDS011;6609;49.882;8.664;2022-09-03T04:27:46;2.97;;;1.00;;
13085;SDS011;6609;49.882;8.664;2022-09-03T04:30:13;2.60;;;1.43;;
13085;SDS011;6609;49.882;8.664;2022-09-03T04:32:42;2.30;;;1.10;;
13085;SDS011;6609;49.882;8.664;2022-09-03T04:35:18;3.00;;;1.23;;
13085;SDS011;6609;49.882;8.664;2022-09-03T04:37:45;1.73;;;1.10;;
13085;SDS011;6609;49.882;8.664;2022-09-03T04:40:13;1.63;;;1.13;;
13085;SDS011;6609;49.882;8.664;2022-09-03T04:42:40;3.00;;;1.30;;
13085;SDS011;6609;49.882;8.664;2022-09-03T04:45:07;3.67;;;1.30;;
13085;SDS011;6609;49.882;8.664;2022-09-03T04:47:35;1.87;;;1.20;;
13085;SDS011;6609;49.882;8.664;2022-09-03T04:50:04;1.77;;;1.20;;
13085;SDS011;6609;49.882;8.664;2022-09-03T04:52:31;3.23;;;1.43;;
13085;SDS011;6609;49.882;8.664;2022-09-03T04:54:58;3.53;;;1.57;;
13085;SDS011;6609;49.882;8.664;2022-09-03T04:57:25;2.77;;;1.37;;
13085;SDS011;6609;49.882;8.664;2022-09-03T04:59:58;2.10;;;1.57;;
13085;SDS011;6609;49.882;8.664;2022-09-03T05:02:25;1.70;;;1.20;;
13085;SDS011;6609;49.882;8.664;2022-09-03T05:04:52;2.30;;;0.90;;
13085;SDS011;6609;49.882;8.664;2022-09-03T05:07:21;5.10;;;1.40;;
13085;SDS011;6609;49.882;8.664;2022-09-03T05:09:48;1.80;;;1.10;;
13085;SDS011;6609;49.882;8.664;2022-09-03T05:12:14;2.40;;;1.00;;
13085;SDS011;6609;49.882;8.664;2022-09-03T05:14:41;1.03;;;0.80;;
13085;SDS011;6609;49.882;8.664;2022-09-03T05:17:08;2.87;;;0.93;;
13085;SDS011;6609;49.882;8.664;2022-09-03T05:19:35;2.07;;;1.07;;
13085;SDS011;6609;49.882;8.664;2022-09-03T05:22:02;2.07;;;0.80;;
13085;SDS011;6609;49.882;8.664;2022-09-03T05:24:30;2.23;;;1.10;;
13085;SDS011;6609;49.882;8.664;2022-09-03T05:26:57;3.27;;;1.00;;
13085;SDS011;6609;49.882;8.664;2022-09-03T05:29:26;2.33;;;1.10;;
13085;SDS011;6609;49.882;8.664;2022-09-03T05:31:53;5.37;;;1.00;;
13085;SDS011;6609;49.882;8.664;2022-09-03T05:34:20;1.80;;;1.23;;
13085;SDS011;6609;49.882;8.664;2022-09-03T05:36:47;1.60;;;1.00;;
13085;SDS011;6609;49.882;8.664;2022-09-03T05:39:14;1.70;;;1.00;;
13085;SDS011;6609;49.882;8.664;2022-09-03T05:41:42;2.80;;;0.90;;
13085;SDS011;6609;49.882;8.664;2022-09-03T05:44:09;1.20;;;1.10;;
13085;SDS011;6609;49.882;8.664;2022-09-03T05:46:36;3.00;;;0.90;;
13085;SDS011;6609;49.882;8.664;2022-09-03T05:49:03;2.43;;;1.20;;
13085;SDS011;6609;49.882;8.664;2022-09-03T05:51:31;1.17;;;1.00;;
13085;SDS011;6609;49.882;8.664;2022-09-03T05:53:59;2.40;;;1.60;;
13085;SDS011;6609;49.882;8.664;2022-09-03T05:56:27;1.37;;;1.10;;
13085;SDS011;6609;49.882;8.664;2022-09-03T05:58:57;2.30;;;0.90;;
13085;SDS011;6609;49.882;8.664;2022-09-03T06:01:26;1.67;;;1.10;;
13085;SDS011;6609;49.882;8.664;2022-09-03T06:03:54;1.07;;;0.87;;
13085;SDS011;6609;49.882;8.664;2022-09-03T06:06:22;1.43;;;0.90;;
13085;SDS011;6609;49.882;8.664;2022-09-03T06:08:50;1.93;;;1.17;;
13085;SDS011;6609;49.882;8.664;2022-09-03T06:11:17;3.00;;;1.00;;
13085;SDS011;6609;49.882;8.664;2022-09-03T06:13:45;2.17;;;1.10;;
13085;SDS011;6609;49.882;8.664;2022-09-03T06:16:13;2.23;;;1.30;;
13085;SDS011;6609;49.882;8.664;2022-09-03T06:18:40;1.00;;;0.90;;
13085;SDS011;6609;49.882;8.664;2022-09-03T06:21:07;2.60;;;1.23;;
13085;SDS011;6609;49.882;8.664;2022-09-03T06:23:34;2.83;;;1.00;;
13085;SDS011;6609;49.882;8.664;2022-09-03T06:26:02;2.83;;;1.00;;
13085;SDS011;6609;49.882;8.664;2022-09-03T06:28:29;1.57;;;1.00;;
13085;SDS011;6609;49.882;8.664;2022-09-03T06:30:58;4.60;;;1.40;;
13085;SDS011;6609;49.882;8.664;2022-09-03T06:33:27;1.57;;;1.20;;
13085;SDS011;6609;49.882;8.664;2022-09-03T06:35:55;1.97;;;1.30;;
13085;SDS011;6609;49.882;8.664;2022-09-03T06:38:23;3.60;;;1.60;;
13085;SDS011;6609;49.882;8.664;2022-09-03T06:40:52;3.57;;;1.40;;
13085;SDS011;6609;49.882;8.664;2022-09-03T06:43:19;3.57;;;1.30;;
13085;SDS011;6609;49.882;8.664;2022-09-03T06:45:54;2.97;;;1.63;;
13085;SDS011;6609;49.882;8.664;2022-09-03T06:48:22;5.07;;;1.50;;
13085;SDS011;6609;49.882;8.664;2022-09-03T06:50:54;2.10;;;1.43;;
13085;SDS011;6609;49.882;8.664;2022-09-03T06:53:21;2.67;;;1.53;;
13085;SDS011;6609;49.882;8.664;2022-09-03T06:55:51;1.97;;;1.30;;
13085;SDS011;6609;49.882;8.664;2022-09-03T06:58:19;3.73;;;1.60;;
13085;SDS011;6609;49.882;8.664;2022-09-03T07:00:47;2.43;;;1.70;;
13085;SDS011;6609;49.882;8.664;2022-09-03T07:03:15;1.60;;;1.50;;
13085;SDS011;6609;49.882;8.664;2022-09-03T07:05:43;1.60;;;1.50;;
13085;SDS011;6609;49.882;8.664;2022-09-03T07:08:11;3.57;;;1.60;;
13085;SDS011;6609;49.882;8.664;2022-09-03T07:10:38;3.03;;;1.67;;
13085;SDS011;6609;49.882;8.664;2022-09-03T07:13:06;2.43;;;1.47;;
13085;SDS011;6609;49.882;8.664;2022-09-03T07:15:33;3.93;;;1.70;;
13085;SDS011;6609;49.882;8.664;2022-09-03T07:17:59;2.00;;;1.43;;
13085;SDS011;6609;49.882;8.664;2022-09-03T07:20:26;1.53;;;1.43;;
13085;SDS011;6609;49.882;8.664;2022-09-03T07:22:54;6.93;;;1.93;;
13085;SDS011;6609;49.882;8.664;2022-09-03T07:25:23;3.00;;;1.67;;
13085;SDS011;6609;49.882;8.664;2022-09-03T07:27:50;3.20;;;1.70;;
13085;SDS011;6609;49.882;8.664;2022-09-03T07:30:17;3.43;;;1.63;;
13085;SDS011;6609;49.882;8.664;2022-09-03T07:32:44;1.90;;;1.57;;
13085;SDS011;6609;49.882;8.664;2022-09-03T07:35:11;2.40;;;1.67;;
13085;SDS011;6609;49.882;8.664;2022-09-03T07:37:39;3.60;;;2.03;;
13085;SDS011;6609;49.882;8.664;2022-09-03T07:40:07;2.63;;;1.83;;
13085;SDS011;6609;49.882;8.664;2022-09-03T07:42:36;3.10;;;2.00;;
13085;SDS011;6609;49.882;8.664;2022-09-03T07:45:04;3.37;;;1.90;;
13085;SDS011;6609;49.882;8.664;2022-09-03T07:47:34;2.33;;;1.90;;
13085;SDS011;6609;49.882;8.664;2022-09-03T07:50:01;3.80;;;2.30;;
13085;SDS011;6609;49.882;8.664;2022-09-03T07:52:29;6.30;;;2.17;;
13085;SDS011;6609;49.882;8.664;2022-09-03T07:54:55;3.73;;;1.83;;
13085;SDS011;6609;49.882;8.664;2022-09-03T07:57:23;2.60;;;2.00;;
13085;SDS011;6609;49.882;8.664;2022-09-03T07:59:51;3.97;;;2.30;;
13085;SDS011;6609;49.882;8.664;2022-09-03T08:02:18;7.07;;;2.00;;
13085;SDS011;6609;49.882;8.664;2022-09-03T08:04:45;3.37;;;1.77;;
13085;SDS011;6609;49.882;8.664;2022-09-03T08:07:12;3.53;;;2.07;;
13085;SDS011;6609;49.882;8.664;2022-09-03T08:09:39;3.57;;;2.37;;
13085;SDS011;6609;49.882;8.664;2022-09-03T08:12:07;2.50;;;2.20;;
13085;SDS011;6609;49.882;8.664;2022-09-03T08:14:34;3.17;;;2.40;;
13085;SDS011;6609;49.882;8.664;2022-09-03T08:17:02;6.93;;;2.63;;
13085;SDS011;6609;49.882;8.664;2022-09-03T08:19:29;5.20;;;2.67;;
13085;SDS011;6609;49.882;8.664;2022-09-03T08:21:56;3.30;;;2.50;;
13085;SDS011;6609;49.882;8.664;2022-09-03T08:24:23;3.47;;;2.37;;
13085;SDS011;6609;49.882;8.664;2022-09-03T08:26:50;3.70;;;2.53;;
13085;SDS011;6609;49.882;8.664;2022-09-03T08:29:17;3.37;;;1.93;;
13085;SDS011;6609;49.882;8.664;2022-09-03T08:31:44;2.57;;;2.10;;
13085;SDS011;6609;49.882;8.664;2022-09-03T08:34:13;3.43;;;2.20;;
13085;SDS011;6609;49.882;8.664;2022-09-03T08:36:41;2.77;;;2.20;;
13085;SDS011;6609;49.882;8.664;2022-09-03T08:39:09;3.57;;;2.10;;
13085;SDS011;6609;49.882;8.664;2022-09-03T08:41:40;3.83;;;1.70;;
13085;SDS011;6609;49.882;8.664;2022-09-03T08:44:14;3.40;;;1.90;;
13085;SDS011;6609;49.882;8.664;2022-09-03T08:46:46;3.93;;;1.90;;
13085;SDS011;6609;49.882;8.664;2022-09-03T08:49:17;4.27;;;1.90;;
13085;SDS011;6609;49.882;8.664;2022-09-03T08:51:46;2.43;;;2.10;;
13085;SDS011;6609;49.882;8.664;2022-09-03T08:54:13;2.00;;;1.80;;
13085;SDS011;6609;49.882;8.664;2022-09-03T08:56:41;3.43;;;2.10;;
13085;SDS011;6609;49.882;8.664;2022-09-03T08:59:09;3.13;;;1.87;;
13085;SDS011;6609;49.882;8.664;2022-09-03T09:01:39;2.23;;;1.80;;
13085;SDS011;6609;49.882;8.664;2022-09-03T09:04:21;2.37;;;2.00;;
13085;SDS011;6609;49.882;8.664;2022-09-03T09:06:51;2.43;;;1.77;;
13085;SDS011;6609;49.882;8.664;2022-09-03T09:09:23;1.63;;;1.53;;
13085;SDS011;6609;49.882;8.664;2022-09-03T09:11:56;1.80;;;1.70;;
13085;SDS011;6609;49.882;8.664;2022-09-03T09:14:30;1.80;;;1.60;;
13085;SDS011;6609;49.882;8.664;2022-09-03T09:17:01;3.13;;;1.90;;
13085;SDS011;6609;49.882;8.664;2022-09-03T09:19:36;2.10;;;1.70;;
13085;SDS011;6609;49.882;8.664;2022-09-03T09:22:06;2.83;;;1.83;;
13085;SDS011;6609;49.882;8.664;2022-09-03T09:24:36;3.03;;;2.10;;
13085;SDS011;6609;49.882;8.664;2022-09-03T09:27:06;3.73;;;2.07;;
13085;SDS011;6609;49.882;8.664;2022-09-03T09:29:34;3.43;;;1.70;;
13085;SDS011;6609;49.882;8.664;2022-09-03T09:32:01;3.23;;;2.10;;
13085;SDS011;6609;49.882;8.664;2022-09-03T09:34:32;3.97;;;2.00;;
13085;SDS011;6609;49.882;8.664;2022-09-03T09:37:00;2.30;;;1.87;;
13085;SDS011;6609;49.882;8.664;2022-09-03T09:39:29;2.43;;;1.80;;
13085;SDS011;6609;49.882;8.664;2022-09-03T09:41:56;2.60;;;1.97;;
13085;SDS011;6609;49.882;8.664;2022-09-03T09:44:24;3.17;;;2.20;;
13085;SDS011;6609;49.882;8.664;2022-09-03T09:47:00;3.10;;;2.23;;
13085;SDS011;6609;49.882;8.664;2022-09-03T09:49:31;2.60;;;2.23;;
13085;SDS011;6609;49.882;8.664;2022-09-03T09:52:06;2.37;;;2.17;;
13085;SDS011;6609;49.882;8.664;2022-09-03T09:54:35;3.23;;;2.53;;
13085;SDS011;6609;49.882;8.664;2022-09-03T09:57:04;6.80;;;2.00;;
13085;SDS011;6609;49.882;8.664;2022-09-03T09:59:31;6.83;;;2.77;;
13085;SDS011;6609;49.882;8.664;2022-09-03T10:04:44;3.23;;;2.30;;
13085;SDS011;6609;49.882;8.664;2022-09-03T10:07:22;3.80;;;2.53;;
13085;SDS011;6609;49.882;8.664;2022-09-03T10:09:57;2.10;;;1.90;;
13085;SDS011;6609;49.882;8.664;2022-09-03T10:12:25;2.60;;;2.40;;
13085;SDS011;6609;49.882;8.664;2022-09-03T10:14:54;3.37;;;2.33;;
13085;SDS011;6609;49.882;8.664;2022-09-03T10:17:28;4.03;;;2.60;;
13085;SDS011;6609;49.882;8.664;2022-09-03T10:20:00;4.67;;;2.30;;
13085;SDS011;6609;49.882;8.664;2022-09-03T10:22:51;3.17;;;2.33;;
13085;SDS011;6609;49.882;8.664;2022-09-03T10:25:20;4.07;;;2.40;;
13085;SDS011;6609;49.882;8.664;2022-09-03T10:27:49;4.30;;;2.50;;
13085;SDS011;6609;49.882;8.664;2022-09-03T10:30:18;4.50;;;2.50;;
13085;SDS011;6609;49.882;8.664;2022-09-03T10:32:47;3.07;;;2.53;;
13085;SDS011;6609;49.882;8.664;2022-09-03T10:35:26;3.63;;;2.40;;
13085;SDS011;6609;49.882;8.664;2022-09-03T10:37:58;4.80;;;2.37;;
13085;SDS011;6609;49.882;8.664;2022-09-03T10:40:33;2.73;;;2.00;;
13085;SDS011;6609;49.882;8.664;2022-09-03T10:43:06;2.47;;;2.27;;
13085;SDS011;6609;49.882;8.664;2022-09-03T10:45:36;2.77;;;2.10;;
13085;SDS011;6609;49.882;8.664;2022-09-03T10:48:10;2.20;;;1.90;;
13085;SDS011;6609;49.882;8.664;2022-09-03T10:50:45;2.13;;;1.93;;
13085;SDS011;6609;49.882;8.664;2022-09-03T10:53:19;3.87;;;2.43;;
13085;SDS011;6609;49.882;8.664;2022-09-03T10:55:48;2.40;;;2.20;;
13085;SDS011;6609;49.882;8.664;2022-09-03T10:58:25;3.63;;;2.40;;
13085;SDS011;6609;49.882;8.664;2022-09-03T11:00:57;4.23;;;2.83;;
13085;SDS011;6609;49.882;8.664;2022-09-03T11:03:37;3.37;;;2.30;;
13085;SDS011;6609;49.882;8.664;2022-09-03T11:06:10;2.57;;;1.87;;
13085;SDS011;6609;49.882;8.664;2022-09-03T11:08:42;2.60;;;2.00;;
13085;SDS011;6609;49.882;8.664;2022-09-03T11:11:14;1.67;;;1.50;;
13085;SDS011;6609;49.882;8.664;2022-09-03T11:13:46;1.60;;;1.50;;
13085;SDS011;6609;49.882;8.664;2022-09-03T11:16:19;2.20;;;1.67;;
13085;SDS011;6609;49.882;8.664;2022-09-03T11:18:52;3.53;;;2.23;;
13085;SDS011;6609;49.882;8.664;2022-09-03T11:21:21;2.83;;;1.80;;
13085;SDS011;6609;49.882;8.664;2022-09-03T11:23:52;2.87;;;1.80;;
13085;SDS011;6609;49.882;8.664;2022-09-03T11:26:29;4.23;;;1.70;;
13085;SDS011;6609;49.882;8.664;2022-09-03T11:28:59;1.90;;;1.80;;
13085;SDS011;6609;49.882;8.664;2022-09-03T11:31:34;2.43;;;1.90;;
13085;SDS011;6609;49.882;8.664;2022-09-03T11:34:12;2.10;;;1.90;;
13085;SDS011;6609;49.882;8.664;2022-09-03T11:36:40;3.53;;;2.03;;
13085;SDS011;6609;49.882;8.664;2022-09-03T11:39:18;1.97;;;1.70;;
13085;SDS011;6609;49.882;8.664;2022-09-03T11:41:55;2.83;;;1.53;;
13085;SDS011;6609;49.882;8.664;2022-09-03T11:44:23;1.97;;;1.60;;
13085;SDS011;6609;49.882;8.664;2022-09-03T11:46:52;4.47;;;2.30;;
13085;SDS011;6609;49.882;8.664;2022-09-03T11:49:24;2.17;;;1.60;;
13085;SDS011;6609;49.882;8.664;2022-09-03T11:51:56;1.53;;;1.43;;
13085;SDS011;6609;49.882;8.664;2022-09-03T11:54:26;2.43;;;2.23;;
13085;SDS011;6609;49.882;8.664;2022-09-03T11:57:06;2.73;;;1.60;;
13085;SDS011;6609;49.882;8.664;2022-09-03T11:59:37;1.67;;;1.57;;
13085;SDS011;6609;49.882;8.664;2022-09-03T12:02:10;6.20;;;1.97;;
13085;SDS011;6609;49.882;8.664;2022-09-03T12:04:46;2.47;;;1.80;;
13085;SDS011;6609;49.882;8.664;2022-09-03T12:07:26;1.90;;;1.70;;
13085;SDS011;6609;49.882;8.664;2022-09-03T12:12:54;2.37;;;1.73;;
13085;SDS011;6609;49.882;8.664;2022-09-03T12:15:35;2.10;;;1.60;;
13085;SDS011;6609;49.882;8.664;2022-09-03T12:18:15;3.20;;;1.67;;
13085;SDS011;6609;49.882;8.664;2022-09-03T12:20:47;2.30;;;1.97;;
13085;SDS011;6609;49.882;8.664;2022-09-03T12:23:26;2.40;;;1.20;;
13085;SDS011;6609;49.882;8.664;2022-09-03T12:25:56;2.70;;;1.30;;
13085;SDS011;6609;49.882;8.664;2022-09-03T12:28:24;1.73;;;1.37;;
13085;SDS011;6609;49.882;8.664;2022-09-03T12:30:53;1.73;;;1.63;;
13085;SDS011;6609;49.882;8.664;2022-09-03T12:33:20;2.10;;;1.70;;
13085;SDS011;6609;49.882;8.664;2022-09-03T12:35:54;1.53;;;1.43;;
13085;SDS011;6609;49.882;8.664;2022-09-03T12:38:22;2.03;;;1.40;;
13085;SDS011;6609;49.882;8.664;2022-09-03T12:40:50;1.93;;;1.70;;
13085;SDS011;6609;49.882;8.664;2022-09-03T12:43:25;2.43;;;1.57;;
13085;SDS011;6609;49.882;8.664;2022-09-03T12:45:52;3.33;;;1.83;;
13085;SDS011;6609;49.882;8.664;2022-09-03T12:48:20;2.60;;;1.70;;
13085;SDS011;6609;49.882;8.664;2022-09-03T12:50:48;2.40;;;1.43;;
13085;SDS011;6609;49.882;8.664;2022-09-03T12:53:26;1.43;;;1.33;;
13085;SDS011;6609;49.882;8.664;2022-09-03T12:55:56;1.97;;;1.77;;
13085;SDS011;6609;49.882;8.664;2022-09-03T12:58:27;2.17;;;1.50;;
13085;SDS011;6609;49.882;8.664;2022-09-03T13:01:03;2.93;;;1.80;;
13085;SDS011;6609;49.882;8.664;2022-09-03T13:03:35;3.20;;;1.40;;
13085;SDS011;6609;49.882;8.664;2022-09-03T13:06:09;2.23;;;1.73;;
13085;SDS011;6609;49.882;8.664;2022-09-03T13:08:38;2.47;;;1.70;;
13085;SDS011;6609;49.882;8.664;2022-09-03T13:11:10;2.67;;;2.07;;
13085;SDS011;6609;49.882;8.664;2022-09-03T13:13:49;3.40;;;2.10;;
13085;SDS011;6609;49.882;8.664;2022-09-03T13:19:28;5.43;;;1.90;;
13085;SDS011;6609;49.882;8.664;2022-09-03T13:22:05;3.07;;;2.00;;
13085;SDS011;6609;49.882;8.664;2022-09-03T13:24:39;2.33;;;1.90;;
13085;SDS011;6609;49.882;8.664;2022-09-03T13:27:18;2.43;;;1.77;;
13085;SDS011;6609;49.882;8.664;2022-09-03T13:29:55;2.27;;;1.90;;
13085;SDS011;6609;49.882;8.664;2022-09-03T13:32:31;3.83;;;2.10;;
13085;SDS011;6609;49.882;8.664;2022-09-03T13:35:16;1.83;;;1.73;;
13085;SDS011;6609;49.882;8.664;2022-09-03T13:37:51;2.23;;;2.03;;
13085;SDS011;6609;49.882;8.664;2022-09-03T13:40:24;2.80;;;2.10;;
13085;SDS011;6609;49.882;8.664;2022-09-03T13:43:00;2.30;;;1.50;;
13085;SDS011;6609;49.882;8.664;2022-09-03T13:45:36;2.10;;;1.63;;
13085;SDS011;6609;49.882;8.664;2022-09-03T13:48:07;2.77;;;2.07;;
13085;SDS011;6609;49.882;8.664;2022-09-03T13:50:58;2.27;;;1.30;;
13085;SDS011;6609;49.882;8.664;2022-09-03T13:53:31;2.37;;;1.70;;
13085;SDS011;6609;49.882;8.664;2022-09-03T13:56:12;2.40;;;2.20;;
13085;SDS011;6609;49.882;8.664;2022-09-03T13:58:47;2.40;;;1.50;;
13085;SDS011;6609;49.882;8.664;2022-09-03T14:01:24;1.43;;;1.33;;
13085;SDS011;6609;49.882;8.664;2022-09-03T14:03:59;1.40;;;1.30;;
13085;SDS011;6609;49.882;8.664;2022-09-03T14:06:35;2.30;;;1.30;;
13085;SDS011;6609;49.882;8.664;2022-09-03T14:09:10;1.97;;;1.37;;
13085;SDS011;6609;49.882;8.664;2022-09-03T14:11:46;1.40;;;1.30;;
13085;SDS011;6609;49.882;8.664;2022-09-03T14:14:22;1.47;;;1.27;;
13085;SDS011;6609;49.882;8.664;2022-09-03T14:17:04;2.20;;;1.47;;
13085;SDS011;6609;49.882;8.664;2022-09-03T14:19:39;2.10;;;1.27;;
13085;SDS011;6609;49.882;8.664;2022-09-03T14:22:12;1.40;;;1.30;;
13085;SDS011;6609;49.882;8.664;2022-09-03T14:24:45;2.07;;;1.50;;
13085;SDS011;6609;49.882;8.664;2022-09-03T14:27:22;1.47;;;1.37;;
13085;SDS011;6609;49.882;8.664;2022-09-03T14:29:52;1.33;;;1.20;;
13085;SDS011;6609;49.882;8.664;2022-09-03T14:32:29;2.27;;;1.53;;
13085;SDS011;6609;49.882;8.664;2022-09-03T14:35:12;1.97;;;1.40;;
13085;SDS011;6609;49.882;8.664;2022-09-03T14:37:48;2.80;;;1.40;;
13085;SDS011;6609;49.882;8.664;2022-09-03T14:40:34;2.90;;;1.60;;
13085;SDS011;6609;49.882;8.664;2022-09-03T14:43:17;2.13;;;1.27;;
13085;SDS011;6609;49.882;8.664;2022-09-03T14:46:06;1.40;;;1.30;;
13085;SDS011;6609;49.882;8.664;2022-09-03T14:48:44;3.57;;;1.53;;
13085;SDS011;6609;49.882;8.664;2022-09-03T14:51:22;1.80;;;1.40;;
13085;SDS011;6609;49.882;8.664;2022-09-03T14:54:11;2.50;;;1.57;;
13085;SDS011;6609;49.882;8.664;2022-09-03T14:56:44;2.37;;;1.80;;
13085;SDS011;6609;49.882;8.664;2022-09-03T15:02:33;1.47;;;1.37;;
13085;SDS011;6609;49.882;8.664;2022-09-03T15:05:40;2.07;;;1.20;;
13085;SDS011;6609;49.882;8.664;2022-09-03T15:08:09;1.57;;;1.47;;
13085;SDS011;6609;49.882;8.664;2022-09-03T15:10:43;1.50;;;1.33;;
13085;SDS011;6609;49.882;8.664;2022-09-03T15:13:13;1.50;;;1.40;;
13085;SDS011;6609;49.882;8.664;2022-09-03T15:15:47;3.50;;;1.50;;
13085;SDS011;6609;49.882;8.664;2022-09-03T15:18:16;2.17;;;1.50;;
13085;SDS011;6609;49.882;8.664;2022-09-03T15:20:50;2.33;;;1.50;;
13085;SDS011;6609;49.882;8.664;2022-09-03T15:23:19;2.50;;;1.60;;
13085;SDS011;6609;49.882;8.664;2022-09-03T15:26:04;2.03;;;1.50;;
13085;SDS011;6609;49.882;8.664;2022-09-03T15:28:44;1.60;;;1.50;;
13085;SDS011;6609;49.882;8.664;2022-09-03T15:31:21;2.67;;;1.87;;
13085;SDS011;6609;49.882;8.664;2022-09-03T15:33:57;1.97;;;1.57;;
13085;SDS011;6609;49.882;8.664;2022-09-03T15:36:27;5.33;;;2.03;;
13085;SDS011;6609;49.882;8.664;2022-09-03T15:39:01;3.13;;;1.63;;
13085;SDS011;6609;49.882;8.664;2022-09-03T15:41:34;2.37;;;1.70;;